createdAt,value
2022-12-26T00:01:42.587Z,12.20
2022-12-26T00:04:48.890Z,12.20
2022-12-26T00:06:38.392Z,12.10
2022-12-26T00:09:06.735Z,12.10
2022-12-26T00:11:34.278Z,12.10
2022-12-26T00:14:07.656Z,12.10
2022-12-26T00:16:35.233Z,12.10
2022-12-26T00:19:02.745Z,12.10
2022-12-26T00:21:31.018Z,12.10
2022-12-26T00:23:59.334Z,12.10
2022-12-26T00:26:26.912Z,12.10
2022-12-26T00:28:55.160Z,12.10
2022-12-26T00:31:22.730Z,12.10
2022-12-26T00:33:50.245Z,12.10
2022-12-26T00:36:17.768Z,12.10
2022-12-26T00:38:45.329Z,12.10
2022-12-26T00:41:12.864Z,12.10
2022-12-26T00:43:40.435Z,12.10
2022-12-26T00:46:07.931Z,12.10
2022-12-26T00:48:35.450Z,12.10
2022-12-26T00:51:02.985Z,12.10
2022-12-26T00:53:30.520Z,12.10
2022-12-26T00:55:58.051Z,12.10
2022-12-26T00:58:25.600Z,12.10
2022-12-26T01:00:53.177Z,12.10
2022-12-26T01:03:20.810Z,12.20
2022-12-26T01:05:51.174Z,12.20
2022-12-26T01:08:21.031Z,12.20
2022-12-26T01:10:46.287Z,12.20
2022-12-26T01:13:13.876Z,12.20
2022-12-26T01:15:41.680Z,12.20
2022-12-26T01:18:09.197Z,12.20
2022-12-26T01:20:36.750Z,12.20
2022-12-26T01:23:04.326Z,12.30
2022-12-26T01:25:31.844Z,12.30
2022-12-26T01:27:59.378Z,12.30
2022-12-26T01:30:27.255Z,12.30
2022-12-26T01:32:54.744Z,12.30
2022-12-26T01:35:22.535Z,12.30
2022-12-26T01:37:50.087Z,12.50
2022-12-26T01:40:17.622Z,12.50
2022-12-26T01:42:45.178Z,12.50
2022-12-26T01:45:19.545Z,12.40
2022-12-26T01:47:47.062Z,12.40
2022-12-26T01:50:26.876Z,12.40
2022-12-26T01:52:54.409Z,12.60
2022-12-26T01:55:22.695Z,12.50
2022-12-26T01:57:56.091Z,12.50
2022-12-26T02:00:23.607Z,12.50
2022-12-26T02:02:57.454Z,12.50
2022-12-26T02:05:34.059Z,12.50
2022-12-26T02:08:10.440Z,12.70
2022-12-26T02:10:55.815Z,12.70
2022-12-26T02:13:23.321Z,12.60
2022-12-26T02:15:50.856Z,12.50
2022-12-26T02:18:18.419Z,12.50
2022-12-26T02:20:48.439Z,12.50
2022-12-26T02:23:15.965Z,12.50
2022-12-26T02:26:04.663Z,12.40
2022-12-26T02:28:43.833Z,12.60
2022-12-26T02:31:20.784Z,12.60
2022-12-26T02:33:51.151Z,12.80
2022-12-26T02:36:33.383Z,13.10
2022-12-26T02:39:00.921Z,13.00
2022-12-26T02:41:46.911Z,12.90
2022-12-26T02:44:32.622Z,12.80
2022-12-26T02:47:11.942Z,12.70
2022-12-26T02:50:19.272Z,12.60
2022-12-26T02:53:08.213Z,12.50
2022-12-26T02:55:38.337Z,12.50
2022-12-26T02:58:24.043Z,12.40
2022-12-26T03:01:09.904Z,12.40
2022-12-26T03:03:55.707Z,12.40
2022-12-26T03:06:41.502Z,12.40
2022-12-26T03:09:31.142Z,12.40
2022-12-26T03:12:19.216Z,12.40
2022-12-26T03:14:49.459Z,12.30
2022-12-26T03:17:22.256Z,12.30
2022-12-26T03:20:23.464Z,12.30
2022-12-26T03:22:53.984Z,12.30
2022-12-26T03:25:54.375Z,12.30
2022-12-26T03:28:21.909Z,12.30
2022-12-26T03:30:49.514Z,12.30
2022-12-26T03:33:19.684Z,12.30
2022-12-26T03:35:47.248Z,12.50
2022-12-26T03:38:14.745Z,12.50
2022-12-26T03:41:12.260Z,12.50
2022-12-26T03:44:12.798Z,12.40
2022-12-26T03:47:10.088Z,12.40
2022-12-26T03:49:55.780Z,12.30
2022-12-26T03:52:56.032Z,12.30
2022-12-26T03:55:56.315Z,12.20
2022-12-26T03:58:50.476Z,12.20
2022-12-26T04:01:36.312Z,12.10
2022-12-26T04:04:22.112Z,12.10
2022-12-26T04:07:10.147Z,12.10
2022-12-26T04:10:10.379Z,12.30
2022-12-26T04:12:55.934Z,12.30
2022-12-26T04:15:47.108Z,12.20
2022-12-26T04:18:35.390Z,12.20
2022-12-26T04:21:40.008Z,12.10
2022-12-26T04:24:28.711Z,12.10
2022-12-26T04:27:14.356Z,12.10
2022-12-26T04:29:59.879Z,12.10
2022-12-26T04:32:54.266Z,12.10
2022-12-26T04:35:39.811Z,12.00
2022-12-26T04:38:25.429Z,12.00
2022-12-26T04:41:10.992Z,12.00
2022-12-26T04:43:56.907Z,12.00
2022-12-26T04:46:24.499Z,11.90
2022-12-26T04:49:10.286Z,11.90
2022-12-26T04:51:37.799Z,11.90
2022-12-26T04:54:05.340Z,11.90
2022-12-26T04:56:32.903Z,12.00
2022-12-26T04:59:00.442Z,12.00
2022-12-26T05:01:46.879Z,12.00
2022-12-26T05:04:32.004Z,12.00
2022-12-26T05:07:17.925Z,12.30
2022-12-26T05:09:45.471Z,12.30
2022-12-26T05:12:13.753Z,12.30
2022-12-26T05:14:42.086Z,12.20
2022-12-26T05:17:27.929Z,12.20
2022-12-26T05:20:14.381Z,12.20
2022-12-26T05:22:59.924Z,12.20
2022-12-26T05:25:45.598Z,12.20
2022-12-26T05:28:31.231Z,12.20
2022-12-26T05:30:58.805Z,12.20
2022-12-26T05:33:44.414Z,12.10
2022-12-26T05:36:11.985Z,12.10
2022-12-26T05:38:40.304Z,12.10
2022-12-26T05:41:07.812Z,12.10
2022-12-26T05:43:36.400Z,12.10
2022-12-26T05:46:05.240Z,12.10
2022-12-26T05:48:32.662Z,12.00
2022-12-26T05:51:00.349Z,12.00
2022-12-26T05:53:27.796Z,12.00
2022-12-26T05:55:55.360Z,11.90
2022-12-26T05:58:23.638Z,11.90
2022-12-26T06:00:51.195Z,11.90
2022-12-26T06:03:18.888Z,11.90
2022-12-26T06:05:46.394Z,11.90
2022-12-26T06:08:13.961Z,11.80
2022-12-26T06:10:41.489Z,11.80
2022-12-26T06:13:09.276Z,11.80
2022-12-26T06:15:36.788Z,11.80
2022-12-26T06:18:04.401Z,11.80
2022-12-26T06:20:32.727Z,11.70
2022-12-26T06:23:00.332Z,11.70
2022-12-26T06:25:27.846Z,11.70
2022-12-26T06:27:55.454Z,11.70
2022-12-26T06:30:22.988Z,11.90
2022-12-26T06:32:50.532Z,11.90
2022-12-26T06:35:18.154Z,12.10
2022-12-26T06:37:46.433Z,12.00
2022-12-26T06:40:13.955Z,12.00
2022-12-26T06:42:41.518Z,11.90
2022-12-26T06:45:09.125Z,11.90
2022-12-26T06:47:36.655Z,11.80
2022-12-26T06:50:04.279Z,11.80
2022-12-26T06:52:31.793Z,11.70
2022-12-26T06:54:59.309Z,11.70
2022-12-26T06:57:26.886Z,11.70
2022-12-26T06:59:54.404Z,11.70
2022-12-26T07:02:22.000Z,11.60
2022-12-26T07:04:49.537Z,11.70
2022-12-26T07:07:17.067Z,11.60
2022-12-26T07:09:44.602Z,11.60
2022-12-26T07:12:12.953Z,11.60
2022-12-26T07:14:40.476Z,11.60
2022-12-26T07:17:08.051Z,11.60
2022-12-26T07:19:35.606Z,11.80
2022-12-26T07:22:03.185Z,11.80
2022-12-26T07:24:30.714Z,11.80
2022-12-26T07:26:58.964Z,11.70
2022-12-26T07:29:26.456Z,11.90
2022-12-26T07:31:54.032Z,11.90
2022-12-26T07:34:24.065Z,11.80
2022-12-26T07:36:49.066Z,11.80
2022-12-26T07:39:16.608Z,11.80
2022-12-26T07:41:58.933Z,11.70
2022-12-26T07:44:29.459Z,11.70
2022-12-26T07:46:56.973Z,11.70
2022-12-26T07:49:25.047Z,11.90
2022-12-26T07:51:52.562Z,11.90
2022-12-26T07:54:20.096Z,11.80
2022-12-26T07:56:47.672Z,11.80
2022-12-26T07:59:15.202Z,11.80
2022-12-26T08:01:42.942Z,11.80
2022-12-26T08:04:11.060Z,11.80
2022-12-26T08:06:38.599Z,11.80
2022-12-26T08:09:06.153Z,11.80
2022-12-26T08:11:33.741Z,11.80
2022-12-26T08:14:01.251Z,11.80
2022-12-26T08:16:28.860Z,11.80
2022-12-26T08:18:57.138Z,11.80
2022-12-26T08:21:24.704Z,11.80
2022-12-26T08:23:52.226Z,11.80
2022-12-26T08:26:19.776Z,12.00
2022-12-26T08:28:47.310Z,12.00
2022-12-26T08:31:14.861Z,12.00
2022-12-26T08:33:42.450Z,12.00
2022-12-26T08:36:10.761Z,11.90
2022-12-26T08:38:38.262Z,11.90
2022-12-26T08:41:05.821Z,11.90
2022-12-26T08:46:07.154Z,11.90
2022-12-26T08:48:34.700Z,11.80
2022-12-26T08:51:07.656Z,11.80
2022-12-26T08:53:35.202Z,11.80
2022-12-26T08:56:02.776Z,11.80
2022-12-26T08:58:30.313Z,11.80
2022-12-26T09:00:57.852Z,11.90
2022-12-26T09:03:25.437Z,11.90
2022-12-26T09:05:52.929Z,11.90
2022-12-26T09:08:20.458Z,11.90
2022-12-26T09:10:49.671Z,11.90
2022-12-26T09:13:17.212Z,11.90
2022-12-26T09:15:44.717Z,11.90
2022-12-26T09:18:12.318Z,11.90
2022-12-26T09:20:39.803Z,12.20
2022-12-26T09:23:08.093Z,12.10
2022-12-26T09:25:35.705Z,12.10
2022-12-26T09:28:03.210Z,12.10
2022-12-26T09:30:31.600Z,12.00
2022-12-26T09:32:59.739Z,12.00
2022-12-26T09:35:28.461Z,12.00
2022-12-26T09:37:55.987Z,12.00
2022-12-26T09:40:23.604Z,11.90
2022-12-26T09:43:02.789Z,12.00
2022-12-26T09:45:42.640Z,12.00
2022-12-26T09:48:10.934Z,12.00
2022-12-26T09:50:42.901Z,12.00
2022-12-26T09:53:08.970Z,12.00
2022-12-26T09:55:45.316Z,12.00
2022-12-26T09:58:31.169Z,12.20
2022-12-26T10:01:05.191Z,12.20
2022-12-26T10:03:32.684Z,12.20
2022-12-26T10:06:06.061Z,12.20
2022-12-26T10:08:33.587Z,12.20
2022-12-26T10:11:03.775Z,12.30
2022-12-26T10:13:40.136Z,12.30
2022-12-26T10:16:19.543Z,12.30
2022-12-26T10:18:50.243Z,12.40
2022-12-26T10:21:29.955Z,12.40
2022-12-26T10:24:03.505Z,12.40
2022-12-26T10:26:31.023Z,12.40
2022-12-26T10:29:10.274Z,12.40
2022-12-26T10:31:40.203Z,12.40
2022-12-26T10:34:20.599Z,12.40
2022-12-26T10:37:03.169Z,12.40
2022-12-26T10:39:40.014Z,12.40
2022-12-26T10:42:21.964Z,12.40
2022-12-26T10:44:49.532Z,12.40
2022-12-26T10:47:28.806Z,12.50
2022-12-26T10:49:56.380Z,12.50
2022-12-26T10:52:23.907Z,12.50
2022-12-26T10:54:51.432Z,12.50
2022-12-26T10:57:19.023Z,12.50
2022-12-26T10:59:49.501Z,12.50
2022-12-26T11:02:17.054Z,12.50
2022-12-26T11:07:31.325Z,12.50
2022-12-26T11:09:58.865Z,12.50
2022-12-26T11:12:38.179Z,12.50
2022-12-26T11:15:17.726Z,12.50
2022-12-26T11:17:45.289Z,12.50
2022-12-26T11:20:12.827Z,12.40
2022-12-26T11:22:40.364Z,12.40
2022-12-26T11:25:10.610Z,12.40
2022-12-26T11:27:38.144Z,12.40
2022-12-26T11:30:15.434Z,12.30
2022-12-26T11:32:43.710Z,12.30
2022-12-26T11:35:17.735Z,12.30
2022-12-26T11:37:46.173Z,12.20
2022-12-26T11:40:19.107Z,12.30
2022-12-26T11:42:50.382Z,12.20
2022-12-26T11:45:17.883Z,12.20
2022-12-26T11:47:45.413Z,12.20
2022-12-26T11:50:12.973Z,12.10
2022-12-26T11:52:46.426Z,12.10
2022-12-26T11:55:23.336Z,12.00
2022-12-26T11:58:08.466Z,11.90
2022-12-26T12:00:39.015Z,11.90
2022-12-26T12:03:22.387Z,11.90
2022-12-26T12:05:52.418Z,11.80
2022-12-26T12:08:34.739Z,11.90
2022-12-26T12:11:05.323Z,11.90
2022-12-26T12:13:38.974Z,11.90
2022-12-26T12:16:24.545Z,11.90
2022-12-26T12:19:01.169Z,12.00
2022-12-26T12:21:40.683Z,12.00
2022-12-26T12:24:10.702Z,12.10
2022-12-26T12:26:54.888Z,12.10
2022-12-26T12:29:32.882Z,12.10
2022-12-26T12:32:09.645Z,12.10
2022-12-26T12:34:49.557Z,12.10
2022-12-26T12:37:42.355Z,12.10
2022-12-26T12:40:18.565Z,12.10
2022-12-26T12:43:00.836Z,12.10
2022-12-26T12:45:33.837Z,12.00
2022-12-26T12:48:25.312Z,12.00
2022-12-26T12:50:58.393Z,11.90
2022-12-26T12:53:47.075Z,11.80
2022-12-26T12:56:45.049Z,11.80
2022-12-26T12:59:34.956Z,11.70
2022-12-26T13:02:08.767Z,11.70
2022-12-26T13:04:34.030Z,11.70
2022-12-26T13:07:01.587Z,11.60
2022-12-26T13:09:29.137Z,11.60
2022-12-26T13:11:56.673Z,11.60
2022-12-26T13:14:24.316Z,11.50
2022-12-26T13:16:54.504Z,11.50
2022-12-26T13:19:33.679Z,11.50
2022-12-26T13:22:01.210Z,11.50
2022-12-26T13:24:28.729Z,11.50
2022-12-26T13:27:14.400Z,11.50
2022-12-26T13:29:42.109Z,11.40
2022-12-26T13:32:27.878Z,11.40
2022-12-26T13:34:55.392Z,11.40
2022-12-26T13:37:41.394Z,11.40
2022-12-26T13:40:11.870Z,11.40
2022-12-26T13:42:58.616Z,11.40
2022-12-26T13:45:38.172Z,11.40
2022-12-26T13:48:17.490Z,11.40
2022-12-26T13:50:54.914Z,11.40
2022-12-26T13:53:27.301Z,11.40
2022-12-26T13:55:57.816Z,11.40
2022-12-26T13:58:46.710Z,11.40
2022-12-26T14:01:35.795Z,11.30
2022-12-26T14:04:09.408Z,11.20
2022-12-26T14:06:55.352Z,11.20
2022-12-26T14:09:59.523Z,11.20
2022-12-26T14:12:51.035Z,11.10
2022-12-26T14:15:19.422Z,11.00
2022-12-26T14:18:08.008Z,11.00
2022-12-26T14:20:48.745Z,11.00
2022-12-26T14:23:19.121Z,10.90
2022-12-26T14:25:59.475Z,10.90
2022-12-26T14:28:50.162Z,10.80
2022-12-26T14:31:20.252Z,10.80
2022-12-26T14:33:53.624Z,11.00
2022-12-26T14:36:36.237Z,11.20
2022-12-26T14:39:21.841Z,11.20
2022-12-26T14:42:25.813Z,11.00
2022-12-26T14:44:53.335Z,10.90
2022-12-26T14:47:42.467Z,10.80
2022-12-26T14:50:34.481Z,10.80
2022-12-26T14:53:20.624Z,10.70
2022-12-26T14:55:50.551Z,10.50
2022-12-26T14:58:55.664Z,10.40
2022-12-26T15:01:23.258Z,10.20
2022-12-26T15:04:00.363Z,9.90
2022-12-26T15:06:51.994Z,9.90
2022-12-26T15:09:25.571Z,9.80
2022-12-26T15:12:01.904Z,9.70
2022-12-26T15:14:41.034Z,9.60
2022-12-26T15:17:27.400Z,9.40
2022-12-26T15:20:22.469Z,9.40
2022-12-26T15:23:13.991Z,9.30
2022-12-26T15:25:43.975Z,9.20
2022-12-26T15:28:42.013Z,9.20
2022-12-26T15:31:39.717Z,9.10
2022-12-26T15:34:34.790Z,9.10
2022-12-26T15:37:20.122Z,9.00
2022-12-26T15:39:48.396Z,8.90
2022-12-26T15:42:18.660Z,8.90
2022-12-26T15:45:10.555Z,8.90
2022-12-26T15:47:59.131Z,8.80
2022-12-26T15:50:31.450Z,8.80
2022-12-26T15:53:10.490Z,8.80
2022-12-26T15:56:05.561Z,9.00
2022-12-26T15:58:42.485Z,9.00
2022-12-26T16:01:10.390Z,8.90
2022-12-26T16:03:56.191Z,8.90
2022-12-26T16:06:39.196Z,8.80
2022-12-26T16:09:27.560Z,8.80
2022-12-26T16:11:55.110Z,8.80
2022-12-26T16:14:25.638Z,9.00
2022-12-26T16:16:53.197Z,9.00
2022-12-26T16:19:20.756Z,9.00
2022-12-26T16:22:06.555Z,8.90
2022-12-26T16:24:34.731Z,9.10
2022-12-26T16:27:02.186Z,9.40
2022-12-26T16:29:29.707Z,9.30
2022-12-26T16:32:03.206Z,9.30
2022-12-26T16:34:30.717Z,9.20
2022-12-26T16:36:58.994Z,9.00
2022-12-26T16:39:26.595Z,9.00
2022-12-26T16:42:00.128Z,9.00
2022-12-26T16:44:33.648Z,8.90
2022-12-26T16:47:04.151Z,8.90
2022-12-26T16:49:31.586Z,8.90
2022-12-26T16:52:00.280Z,8.80
2022-12-26T16:54:27.796Z,8.80
2022-12-26T16:57:09.524Z,8.70
2022-12-26T16:59:37.037Z,8.70
2022-12-26T17:02:04.651Z,8.90
2022-12-26T17:04:32.103Z,9.00
2022-12-26T17:07:08.602Z,8.90
2022-12-26T17:09:39.990Z,8.80
2022-12-26T17:12:08.273Z,8.80
2022-12-26T17:14:38.788Z,8.80
2022-12-26T17:17:07.136Z,8.80
2022-12-26T17:19:34.638Z,8.70
2022-12-26T17:22:20.221Z,8.70
2022-12-26T17:24:51.214Z,8.70
2022-12-26T17:27:24.911Z,8.70
2022-12-26T17:29:58.236Z,8.70
2022-12-26T17:32:38.531Z,8.60
2022-12-26T17:35:06.083Z,8.50
2022-12-26T17:37:33.580Z,8.60
2022-12-26T17:40:03.303Z,8.50
2022-12-26T17:42:28.901Z,8.40
2022-12-26T17:44:56.412Z,8.30
2022-12-26T17:47:25.094Z,8.00
2022-12-26T17:49:52.551Z,8.00
2022-12-26T17:52:23.595Z,7.80
2022-12-26T17:54:51.170Z,7.80
2022-12-26T17:57:22.860Z,7.60
2022-12-26T17:59:50.286Z,7.60
2022-12-26T18:02:17.942Z,7.50
2022-12-26T18:04:46.148Z,7.30
2022-12-26T18:07:19.230Z,7.20
2022-12-26T18:09:47.357Z,7.20
2022-12-26T18:12:14.871Z,7.10
2022-12-26T18:14:42.385Z,7.00
2022-12-26T18:17:09.945Z,7.00
2022-12-26T18:19:38.232Z,6.90
2022-12-26T18:22:06.514Z,6.80
2022-12-26T18:24:34.850Z,7.00
2022-12-26T18:27:02.397Z,7.00
2022-12-26T18:29:29.914Z,6.90
2022-12-26T18:31:57.556Z,7.10
2022-12-26T18:34:24.998Z,7.00
2022-12-26T18:36:52.604Z,6.90
2022-12-26T18:39:20.194Z,6.70
2022-12-26T18:41:47.789Z,6.90
2022-12-26T18:44:15.317Z,7.10
2022-12-26T18:46:42.945Z,7.00
2022-12-26T18:49:10.468Z,7.10
2022-12-26T18:51:37.991Z,6.90
2022-12-26T18:54:05.570Z,6.80
2022-12-26T18:56:33.092Z,6.90
2022-12-26T18:59:01.048Z,6.80
2022-12-26T19:01:29.119Z,6.70
2022-12-26T19:03:56.565Z,6.60
2022-12-26T19:06:24.068Z,6.40
2022-12-26T19:08:51.657Z,6.40
2022-12-26T19:11:19.173Z,6.60
2022-12-26T19:13:46.697Z,6.50
2022-12-26T19:16:14.311Z,6.40
2022-12-26T19:18:41.756Z,6.30
2022-12-26T19:21:11.944Z,6.20
2022-12-26T19:23:40.275Z,6.30
2022-12-26T19:26:10.464Z,6.30
2022-12-26T19:28:38.056Z,6.20
2022-12-26T19:31:11.702Z,6.10
2022-12-26T19:33:39.161Z,6.00
2022-12-26T19:36:06.687Z,6.00
2022-12-26T19:38:34.256Z,5.90
2022-12-26T19:41:04.567Z,5.90
2022-12-26T19:43:32.117Z,5.80
2022-12-26T19:46:07.086Z,5.80
2022-12-26T19:48:35.194Z,5.70
2022-12-26T19:51:02.767Z,5.70
2022-12-26T19:53:30.341Z,5.90
2022-12-26T19:55:57.876Z,5.80
2022-12-26T19:58:27.912Z,5.70
2022-12-26T20:00:56.054Z,5.70
2022-12-26T20:03:23.494Z,5.60
2022-12-26T20:05:51.023Z,5.60
2022-12-26T20:08:18.578Z,5.50
2022-12-26T20:10:46.095Z,5.60
2022-12-26T20:13:14.413Z,5.50
2022-12-26T20:15:42.369Z,5.50
2022-12-26T20:18:14.785Z,5.40
2022-12-26T20:20:37.428Z,5.40
2022-12-26T20:23:05.009Z,5.30
2022-12-26T20:25:33.329Z,5.20
2022-12-26T20:28:00.835Z,5.20
2022-12-26T20:30:28.412Z,5.10
2022-12-26T20:32:55.925Z,5.10
2022-12-26T20:35:23.483Z,5.30
2022-12-26T20:37:51.082Z,5.50
2022-12-26T20:40:18.615Z,5.50
2022-12-26T20:42:46.124Z,5.40
2022-12-26T20:45:14.482Z,5.10
2022-12-26T20:47:41.973Z,5.10
2022-12-26T20:50:09.482Z,5.00
2022-12-26T20:52:37.033Z,5.00
2022-12-26T20:55:04.597Z,4.90
2022-12-26T20:57:32.086Z,4.80
2022-12-26T21:00:00.716Z,4.70
2022-12-26T21:02:28.434Z,4.70
2022-12-26T21:04:55.777Z,4.70
2022-12-26T21:07:23.347Z,4.60
2022-12-26T21:09:50.851Z,4.60
2022-12-26T21:12:18.362Z,4.50
2022-12-26T21:14:46.075Z,4.50
2022-12-26T21:17:13.604Z,4.50
2022-12-26T21:19:41.885Z,4.40
2022-12-26T21:22:10.222Z,4.40
2022-12-26T21:24:37.760Z,4.40
2022-12-26T21:27:05.278Z,4.30
2022-12-26T21:29:34.524Z,4.30
2022-12-26T21:32:02.032Z,4.30
2022-12-26T21:34:29.552Z,4.20
2022-12-26T21:37:16.113Z,4.20
2022-12-26T21:39:43.625Z,4.20
2022-12-26T21:42:11.233Z,4.20
2022-12-26T21:44:39.221Z,4.40
2022-12-26T21:47:06.730Z,4.40
2022-12-26T21:49:34.259Z,4.40
2022-12-26T21:52:01.842Z,4.30
2022-12-26T21:54:49.406Z,4.20
2022-12-26T21:57:16.107Z,4.40
2022-12-26T21:59:59.493Z,4.40
2022-12-26T22:02:47.286Z,4.30
2022-12-26T22:05:14.626Z,4.20
2022-12-26T22:07:42.171Z,4.10
2022-12-26T22:10:09.744Z,4.10
2022-12-26T22:12:55.278Z,4.10
2022-12-26T22:15:40.777Z,4.10
2022-12-26T22:18:08.259Z,4.30
2022-12-26T22:20:35.786Z,4.30
2022-12-26T22:23:03.345Z,4.20
2022-12-26T22:25:30.897Z,4.20
2022-12-26T22:27:58.434Z,4.10
2022-12-26T22:30:26.009Z,4.10
2022-12-26T22:32:54.310Z,4.00
2022-12-26T22:35:21.842Z,4.00
2022-12-26T22:37:50.245Z,3.90
2022-12-26T22:40:17.761Z,3.90
2022-12-26T22:42:45.303Z,3.90
2022-12-26T22:45:12.873Z,3.90
2022-12-26T22:47:40.396Z,3.90
2022-12-26T22:50:07.980Z,3.90
2022-12-26T22:52:35.543Z,4.20
2022-12-26T22:55:03.178Z,4.20
2022-12-26T22:57:30.700Z,4.20
2022-12-26T23:00:08.850Z,4.10
2022-12-26T23:02:26.745Z,4.10
2022-12-26T23:04:54.082Z,4.10
2022-12-26T23:07:21.661Z,4.00
2022-12-26T23:09:49.204Z,4.00
2022-12-26T23:12:35.267Z,4.00
2022-12-26T23:15:02.803Z,4.00
2022-12-26T23:17:48.582Z,4.00
2022-12-26T23:20:34.159Z,4.00
2022-12-26T23:23:01.766Z,4.00
2022-12-26T23:25:29.248Z,4.00
2022-12-26T23:28:14.617Z,4.00
2022-12-26T23:30:42.145Z,4.10
2022-12-26T23:33:09.661Z,4.00
2022-12-26T23:35:37.727Z,4.00
2022-12-26T23:38:05.256Z,4.00
2022-12-26T23:40:32.791Z,4.10
2022-12-26T23:43:00.609Z,4.10
2022-12-26T23:45:28.144Z,4.30
2022-12-26T23:47:55.643Z,4.30
2022-12-26T23:50:23.790Z,4.30
2022-12-26T23:52:51.310Z,4.30
2022-12-26T23:55:18.817Z,4.30
2022-12-26T23:57:47.433Z,4.30
